首页
METAR-TAF:

METAR-TAF

机场 :

阿图罗·梅里诺·贝尼特斯准将国际机场

圣地亚哥-德智利, 智利

纬度: 33-23S, 经度: 070-47W, 海拔: 475米

当前天气观测

该预报发布于48分钟前的23:00 UTC
风速8节,风向西南
温度 21°C
湿度 28%
气压 1014 hPa
能见度10公里或以上
1500米以下无云,无积雨云

METAR: SCEL 212300Z 23008KT CAVOK 21/02 Q1014 NOSIG

时间: 20:48 (23:48 UTC)

预报

该预报发布于1小时和40分钟前的22:08 UTC
预报有效从22日的 00点(UTC)到 22日的 24点(UTC)
风速10节,风向南转西南
能见度10公里或以上
1500米以下无云,无积雨云
成为
从 22日的 03点(UTC)到 22日的 05点(UTC)
风速4节,风向东南
短暂存在
从 22日的 10点(UTC)到 22日的 12点(UTC)
风速2节,风向多变
能見度: 7000
成为
从 22日的 17点(UTC)到 22日的 19点(UTC)
风速6节,风向
成为
从 22日的 19点(UTC)到 22日的 21点(UTC)
风速7节,风向西南

TAF: SCEL 212208Z 2200/2224 20010KT CAVOK TX26/2219Z TN07/2211Z BECMG 2203/2205 14004KT TEMPO 2210/2212 VRB02KT 7000 NSC BECMG 2217/2219 19006KT BECMG 2219/2221 22007KT

超过4000个机场的气象观测和天气预报(METAR&TAF报告)。

可查询的气象台以黄色和红色小点在地图上表示。

将鼠标移到小点上方,可查看气象台名称。

然后点击查看天气观测和预报。

如需切换地图:点击带黑十字的绿色按钮放大地图;点击带横线的绿色按钮缩小地图;或者点击绿色箭头查看邻近地区的地图。


METAR-TAF: